sensor_id;sensor_type;location;lat;lon;timestamp;P1;durP1;ratioP1;P2;durP2;ratioP2
29026;SDS011;16120;48.608;9.092;2023-12-20T00:03:25;114.67;;;8.77;;
29026;SDS011;16120;48.608;9.092;2023-12-20T00:07:21;113.93;;;8.33;;
29026;SDS011;16120;48.608;9.092;2023-12-20T00:11:17;114.10;;;8.37;;
29026;SDS011;16120;48.608;9.092;2023-12-20T00:15:12;114.32;;;8.50;;
29026;SDS011;16120;48.608;9.092;2023-12-20T00:19:07;114.57;;;9.07;;
29026;SDS011;16120;48.608;9.092;2023-12-20T00:23:04;114.20;;;8.27;;
29026;SDS011;16120;48.608;9.092;2023-12-20T00:26:59;114.30;;;8.37;;
29026;SDS011;16120;48.608;9.092;2023-12-20T00:30:54;114.07;;;8.82;;
29026;SDS011;16120;48.608;9.092;2023-12-20T00:34:49;114.63;;;8.43;;
29026;SDS011;16120;48.608;9.092;2023-12-20T00:38:46;113.67;;;8.17;;
29026;SDS011;16120;48.608;9.092;2023-12-20T00:42:41;114.17;;;8.40;;
29026;SDS011;16120;48.608;9.092;2023-12-20T00:46:36;114.05;;;8.50;;
29026;SDS011;16120;48.608;9.092;2023-12-20T00:50:31;114.43;;;8.52;;
29026;SDS011;16120;48.608;9.092;2023-12-20T00:54:28;114.10;;;8.40;;
29026;SDS011;16120;48.608;9.092;2023-12-20T00:58:23;114.43;;;8.53;;
29026;SDS011;16120;48.608;9.092;2023-12-20T01:02:18;115.07;;;9.20;;
29026;SDS011;16120;48.608;9.092;2023-12-20T01:06:14;114.70;;;8.05;;
29026;SDS011;16120;48.608;9.092;2023-12-20T01:10:10;113.93;;;8.57;;
29026;SDS011;16120;48.608;9.092;2023-12-20T01:14:05;114.30;;;8.63;;
29026;SDS011;16120;48.608;9.092;2023-12-20T01:18:01;114.57;;;8.60;;
29026;SDS011;16120;48.608;9.092;2023-12-20T01:21:56;114.40;;;8.30;;
29026;SDS011;16120;48.608;9.092;2023-12-20T01:25:52;114.93;;;8.25;;
29026;SDS011;16120;48.608;9.092;2023-12-20T01:29:47;114.57;;;8.40;;
29026;SDS011;16120;48.608;9.092;2023-12-20T01:33:43;114.70;;;8.90;;
29026;SDS011;16120;48.608;9.092;2023-12-20T01:37:38;115.00;;;9.10;;
29026;SDS011;16120;48.608;9.092;2023-12-20T01:41:34;114.17;;;8.23;;
29026;SDS011;16120;48.608;9.092;2023-12-20T01:45:30;115.33;;;9.00;;
29026;SDS011;16120;48.608;9.092;2023-12-20T01:49:25;114.30;;;8.67;;
29026;SDS011;16120;48.608;9.092;2023-12-20T01:53:22;114.23;;;8.30;;
29026;SDS011;16120;48.608;9.092;2023-12-20T01:57:20;114.33;;;8.27;;
29026;SDS011;16120;48.608;9.092;2023-12-20T02:01:15;114.80;;;8.60;;
29026;SDS011;16120;48.608;9.092;2023-12-20T02:05:10;114.53;;;8.70;;
29026;SDS011;16120;48.608;9.092;2023-12-20T02:09:06;114.73;;;8.60;;
29026;SDS011;16120;48.608;9.092;2023-12-20T02:13:03;114.90;;;8.30;;
29026;SDS011;16120;48.608;9.092;2023-12-20T02:16:58;114.70;;;8.50;;
29026;SDS011;16120;48.608;9.092;2023-12-20T02:20:54;115.17;;;8.40;;
29026;SDS011;16120;48.608;9.092;2023-12-20T02:24:50;114.10;;;8.70;;
29026;SDS011;16120;48.608;9.092;2023-12-20T02:28:45;115.20;;;9.00;;
29026;SDS011;16120;48.608;9.092;2023-12-20T02:32:41;114.60;;;8.50;;
29026;SDS011;16120;48.608;9.092;2023-12-20T02:36:36;115.03;;;8.90;;
29026;SDS011;16120;48.608;9.092;2023-12-20T02:40:32;115.10;;;8.60;;
29026;SDS011;16120;48.608;9.092;2023-12-20T02:44:28;114.73;;;8.70;;
29026;SDS011;16120;48.608;9.092;2023-12-20T02:48:23;115.50;;;9.00;;
29026;SDS011;16120;48.608;9.092;2023-12-20T02:52:18;115.00;;;8.90;;
29026;SDS011;16120;48.608;9.092;2023-12-20T02:56:15;114.60;;;8.40;;
29026;SDS011;16120;48.608;9.092;2023-12-20T03:00:10;114.57;;;8.67;;
29026;SDS011;16120;48.608;9.092;2023-12-20T03:04:05;114.57;;;8.60;;
29026;SDS011;16120;48.608;9.092;2023-12-20T03:08:01;114.07;;;8.50;;
29026;SDS011;16120;48.608;9.092;2023-12-20T03:11:57;114.20;;;8.47;;
29026;SDS011;16120;48.608;9.092;2023-12-20T03:15:52;114.97;;;8.63;;
29026;SDS011;16120;48.608;9.092;2023-12-20T03:19:48;114.63;;;8.33;;
29026;SDS011;16120;48.608;9.092;2023-12-20T03:23:43;114.30;;;8.80;;
29026;SDS011;16120;48.608;9.092;2023-12-20T03:27:39;114.57;;;8.38;;
29026;SDS011;16120;48.608;9.092;2023-12-20T03:31:35;114.20;;;8.77;;
29026;SDS011;16120;48.608;9.092;2023-12-20T03:35:30;115.10;;;8.33;;
29026;SDS011;16120;48.608;9.092;2023-12-20T03:39:25;115.40;;;9.00;;
29026;SDS011;16120;48.608;9.092;2023-12-20T03:43:22;114.63;;;8.52;;
29026;SDS011;16120;48.608;9.092;2023-12-20T03:47:17;115.77;;;8.83;;
29026;SDS011;16120;48.608;9.092;2023-12-20T03:51:12;114.70;;;8.43;;
29026;SDS011;16120;48.608;9.092;2023-12-20T03:55:07;115.20;;;9.13;;
29026;SDS011;16120;48.608;9.092;2023-12-20T03:59:04;115.40;;;8.60;;
29026;SDS011;16120;48.608;9.092;2023-12-20T04:02:59;115.00;;;8.93;;
29026;SDS011;16120;48.608;9.092;2023-12-20T04:06:54;115.03;;;8.45;;
29026;SDS011;16120;48.608;9.092;2023-12-20T04:10:49;114.20;;;8.70;;
29026;SDS011;16120;48.608;9.092;2023-12-20T04:14:46;115.17;;;9.30;;
29026;SDS011;16120;48.608;9.092;2023-12-20T04:18:41;114.47;;;8.57;;
29026;SDS011;16120;48.608;9.092;2023-12-20T04:22:36;114.57;;;8.90;;
29026;SDS011;16120;48.608;9.092;2023-12-20T04:26:31;114.87;;;8.83;;
29026;SDS011;16120;48.608;9.092;2023-12-20T04:30:28;115.07;;;8.73;;
29026;SDS011;16120;48.608;9.092;2023-12-20T04:34:23;115.27;;;9.00;;
29026;SDS011;16120;48.608;9.092;2023-12-20T04:38:18;116.18;;;8.63;;
29026;SDS011;16120;48.608;9.092;2023-12-20T04:42:14;115.13;;;8.77;;
29026;SDS011;16120;48.608;9.092;2023-12-20T04:46:10;114.67;;;8.57;;
29026;SDS011;16120;48.608;9.092;2023-12-20T04:50:06;115.27;;;8.97;;
29026;SDS011;16120;48.608;9.092;2023-12-20T04:54:01;114.50;;;8.80;;
29026;SDS011;16120;48.608;9.092;2023-12-20T04:57:56;115.17;;;8.87;;
29026;SDS011;16120;48.608;9.092;2023-12-20T05:01:53;115.50;;;8.80;;
29026;SDS011;16120;48.608;9.092;2023-12-20T05:05:48;114.67;;;8.53;;
29026;SDS011;16120;48.608;9.092;2023-12-20T05:09:43;116.67;;;9.07;;
29026;SDS011;16120;48.608;9.092;2023-12-20T05:13:38;114.77;;;9.00;;
29026;SDS011;16120;48.608;9.092;2023-12-20T05:17:35;115.30;;;8.80;;
29026;SDS011;16120;48.608;9.092;2023-12-20T05:21:30;115.30;;;8.80;;
29026;SDS011;16120;48.608;9.092;2023-12-20T05:25:25;115.45;;;9.18;;
29026;SDS011;16120;48.608;9.092;2023-12-20T05:29:21;115.22;;;8.57;;
29026;SDS011;16120;48.608;9.092;2023-12-20T05:33:17;114.87;;;8.60;;
29026;SDS011;16120;48.608;9.092;2023-12-20T05:37:12;114.70;;;8.90;;
29026;SDS011;16120;48.608;9.092;2023-12-20T05:41:08;115.57;;;8.93;;
29026;SDS011;16120;48.608;9.092;2023-12-20T05:45:03;115.83;;;9.30;;
29026;SDS011;16120;48.608;9.092;2023-12-20T05:49:00;115.30;;;8.60;;
29026;SDS011;16120;48.608;9.092;2023-12-20T05:52:55;115.50;;;8.60;;
29026;SDS011;16120;48.608;9.092;2023-12-20T05:56:50;115.60;;;8.38;;
29026;SDS011;16120;48.608;9.092;2023-12-20T06:00:45;115.50;;;9.17;;
29026;SDS011;16120;48.608;9.092;2023-12-20T06:04:43;115.07;;;8.70;;
29026;SDS011;16120;48.608;9.092;2023-12-20T06:08:38;114.97;;;9.10;;
29026;SDS011;16120;48.608;9.092;2023-12-20T06:12:33;115.67;;;9.47;;
29026;SDS011;16120;48.608;9.092;2023-12-20T06:16:28;115.80;;;8.67;;
29026;SDS011;16120;48.608;9.092;2023-12-20T06:20:25;115.27;;;8.87;;
29026;SDS011;16120;48.608;9.092;2023-12-20T06:24:20;116.10;;;8.63;;
29026;SDS011;16120;48.608;9.092;2023-12-20T06:28:15;115.60;;;8.45;;
29026;SDS011;16120;48.608;9.092;2023-12-20T06:32:10;115.50;;;8.80;;
29026;SDS011;16120;48.608;9.092;2023-12-20T06:36:07;115.60;;;9.27;;
29026;SDS011;16120;48.608;9.092;2023-12-20T06:40:03;115.20;;;8.73;;
29026;SDS011;16120;48.608;9.092;2023-12-20T06:43:58;116.30;;;8.97;;
29026;SDS011;16120;48.608;9.092;2023-12-20T06:47:53;114.27;;;8.40;;
29026;SDS011;16120;48.608;9.092;2023-12-20T06:51:50;114.77;;;8.83;;
29026;SDS011;16120;48.608;9.092;2023-12-20T06:55:45;115.70;;;9.10;;
29026;SDS011;16120;48.608;9.092;2023-12-20T06:59:40;115.05;;;9.00;;
29026;SDS011;16120;48.608;9.092;2023-12-20T07:03:36;115.30;;;9.07;;
29026;SDS011;16120;48.608;9.092;2023-12-20T07:07:32;115.33;;;8.87;;
29026;SDS011;16120;48.608;9.092;2023-12-20T07:11:28;114.40;;;8.73;;
29026;SDS011;16120;48.608;9.092;2023-12-20T07:15:23;115.07;;;9.13;;
29026;SDS011;16120;48.608;9.092;2023-12-20T07:19:24;114.87;;;8.53;;
29026;SDS011;16120;48.608;9.092;2023-12-20T07:27:43;115.27;;;8.77;;
29026;SDS011;16120;48.608;9.092;2023-12-20T07:31:38;115.70;;;9.00;;
29026;SDS011;16120;48.608;9.092;2023-12-20T07:35:33;115.37;;;8.70;;
29026;SDS011;16120;48.608;9.092;2023-12-20T07:39:32;115.67;;;8.50;;
29026;SDS011;16120;48.608;9.092;2023-12-20T07:43:34;115.37;;;8.63;;
29026;SDS011;16120;48.608;9.092;2023-12-20T07:47:38;116.30;;;9.13;;
29026;SDS011;16120;48.608;9.092;2023-12-20T07:51:33;115.90;;;8.70;;
29026;SDS011;16120;48.608;9.092;2023-12-20T07:55:29;115.20;;;8.53;;
29026;SDS011;16120;48.608;9.092;2023-12-20T07:59:25;115.22;;;8.68;;
29026;SDS011;16120;48.608;9.092;2023-12-20T08:03:21;115.93;;;8.67;;
29026;SDS011;16120;48.608;9.092;2023-12-20T08:07:16;116.10;;;9.10;;
29026;SDS011;16120;48.608;9.092;2023-12-20T08:11:11;115.80;;;8.82;;
29026;SDS011;16120;48.608;9.092;2023-12-20T08:15:08;115.47;;;8.97;;
29026;SDS011;16120;48.608;9.092;2023-12-20T08:19:03;115.07;;;8.63;;
29026;SDS011;16120;48.608;9.092;2023-12-20T08:22:59;114.67;;;8.57;;
29026;SDS011;16120;48.608;9.092;2023-12-20T08:26:54;115.47;;;8.77;;
29026;SDS011;16120;48.608;9.092;2023-12-20T08:30:50;115.65;;;9.40;;
29026;SDS011;16120;48.608;9.092;2023-12-20T08:34:46;115.40;;;8.70;;
29026;SDS011;16120;48.608;9.092;2023-12-20T08:38:41;115.07;;;9.00;;
29026;SDS011;16120;48.608;9.092;2023-12-20T08:42:36;115.00;;;8.97;;
29026;SDS011;16120;48.608;9.092;2023-12-20T08:46:33;115.70;;;8.73;;
29026;SDS011;16120;48.608;9.092;2023-12-20T08:50:28;115.60;;;8.60;;
29026;SDS011;16120;48.608;9.092;2023-12-20T08:54:23;114.57;;;8.40;;
29026;SDS011;16120;48.608;9.092;2023-12-20T08:58:18;115.03;;;8.77;;
29026;SDS011;16120;48.608;9.092;2023-12-20T09:02:15;115.70;;;8.70;;
29026;SDS011;16120;48.608;9.092;2023-12-20T09:06:10;115.20;;;8.67;;
29026;SDS011;16120;48.608;9.092;2023-12-20T09:10:06;116.10;;;8.90;;
29026;SDS011;16120;48.608;9.092;2023-12-20T09:14:01;116.40;;;9.00;;
29026;SDS011;16120;48.608;9.092;2023-12-20T09:17:58;115.17;;;8.20;;
29026;SDS011;16120;48.608;9.092;2023-12-20T09:21:53;115.93;;;9.70;;
29026;SDS011;16120;48.608;9.092;2023-12-20T09:25:48;115.75;;;8.90;;
29026;SDS011;16120;48.608;9.092;2023-12-20T09:29:43;115.80;;;8.57;;
29026;SDS011;16120;48.608;9.092;2023-12-20T09:33:40;115.07;;;9.53;;
29026;SDS011;16120;48.608;9.092;2023-12-20T09:37:35;114.87;;;8.63;;
29026;SDS011;16120;48.608;9.092;2023-12-20T09:41:31;115.67;;;8.90;;
29026;SDS011;16120;48.608;9.092;2023-12-20T09:45:27;114.70;;;8.53;;
29026;SDS011;16120;48.608;9.092;2023-12-20T09:49:23;114.27;;;8.43;;
29026;SDS011;16120;48.608;9.092;2023-12-20T09:53:18;115.90;;;9.63;;
29026;SDS011;16120;48.608;9.092;2023-12-20T09:57:14;115.10;;;9.30;;
29026;SDS011;16120;48.608;9.092;2023-12-20T10:01:09;114.50;;;8.47;;
29026;SDS011;16120;48.608;9.092;2023-12-20T10:05:06;114.43;;;8.70;;
29026;SDS011;16120;48.608;9.092;2023-12-20T10:09:03;114.17;;;8.87;;
29026;SDS011;16120;48.608;9.092;2023-12-20T10:13:01;113.67;;;8.60;;
29026;SDS011;16120;48.608;9.092;2023-12-20T10:17:01;114.07;;;8.73;;
29026;SDS011;16120;48.608;9.092;2023-12-20T10:20:58;114.17;;;8.60;;
29026;SDS011;16120;48.608;9.092;2023-12-20T10:24:53;114.27;;;9.23;;
29026;SDS011;16120;48.608;9.092;2023-12-20T10:28:51;114.00;;;8.80;;
29026;SDS011;16120;48.608;9.092;2023-12-20T10:32:46;113.90;;;8.87;;
29026;SDS011;16120;48.608;9.092;2023-12-20T10:36:43;113.57;;;8.80;;
29026;SDS011;16120;48.608;9.092;2023-12-20T10:40:39;113.83;;;8.83;;
29026;SDS011;16120;48.608;9.092;2023-12-20T10:44:37;113.27;;;8.60;;
29026;SDS011;16120;48.608;9.092;2023-12-20T10:48:32;113.40;;;8.80;;
29026;SDS011;16120;48.608;9.092;2023-12-20T10:52:31;113.17;;;8.40;;
29026;SDS011;16120;48.608;9.092;2023-12-20T10:56:27;112.40;;;8.17;;
29026;SDS011;16120;48.608;9.092;2023-12-20T11:00:24;113.37;;;9.10;;
29026;SDS011;16120;48.608;9.092;2023-12-20T11:04:21;112.67;;;8.00;;
29026;SDS011;16120;48.608;9.092;2023-12-20T11:08:20;112.20;;;8.30;;
29026;SDS011;16120;48.608;9.092;2023-12-20T11:12:17;112.30;;;8.07;;
29026;SDS011;16120;48.608;9.092;2023-12-20T11:16:15;112.23;;;8.20;;
29026;SDS011;16120;48.608;9.092;2023-12-20T11:20:10;112.60;;;8.00;;
29026;SDS011;16120;48.608;9.092;2023-12-20T11:24:07;112.70;;;8.40;;
29026;SDS011;16120;48.608;9.092;2023-12-20T11:28:08;112.80;;;8.13;;
29026;SDS011;16120;48.608;9.092;2023-12-20T11:32:27;113.17;;;8.57;;
29026;SDS011;16120;48.608;9.092;2023-12-20T11:36:21;113.67;;;8.40;;
29026;SDS011;16120;48.608;9.092;2023-12-20T11:40:22;112.87;;;8.13;;
29026;SDS011;16120;48.608;9.092;2023-12-20T11:44:18;112.73;;;8.20;;
29026;SDS011;16120;48.608;9.092;2023-12-20T11:48:13;113.17;;;8.40;;
29026;SDS011;16120;48.608;9.092;2023-12-20T11:52:08;113.50;;;8.43;;
29026;SDS011;16120;48.608;9.092;2023-12-20T11:56:06;113.53;;;8.70;;
29026;SDS011;16120;48.608;9.092;2023-12-20T12:00:02;113.00;;;8.13;;
29026;SDS011;16120;48.608;9.092;2023-12-20T12:04:03;113.40;;;8.83;;
29026;SDS011;16120;48.608;9.092;2023-12-20T12:07:58;113.40;;;8.30;;
29026;SDS011;16120;48.608;9.092;2023-12-20T12:11:55;113.87;;;9.13;;
29026;SDS011;16120;48.608;9.092;2023-12-20T12:15:50;113.57;;;8.20;;
29026;SDS011;16120;48.608;9.092;2023-12-20T12:19:45;113.77;;;8.70;;
29026;SDS011;16120;48.608;9.092;2023-12-20T12:23:41;113.80;;;8.77;;
29026;SDS011;16120;48.608;9.092;2023-12-20T12:27:38;114.57;;;8.87;;
29026;SDS011;16120;48.608;9.092;2023-12-20T12:31:34;114.20;;;8.27;;
29026;SDS011;16120;48.608;9.092;2023-12-20T12:35:29;114.47;;;8.37;;
29026;SDS011;16120;48.608;9.092;2023-12-20T12:39:24;113.67;;;8.43;;
29026;SDS011;16120;48.608;9.092;2023-12-20T12:43:21;114.63;;;9.20;;
29026;SDS011;16120;48.608;9.092;2023-12-20T12:47:16;114.37;;;8.63;;
29026;SDS011;16120;48.608;9.092;2023-12-20T12:51:11;114.10;;;8.30;;
29026;SDS011;16120;48.608;9.092;2023-12-20T12:55:07;114.57;;;8.90;;
29026;SDS011;16120;48.608;9.092;2023-12-20T12:59:03;114.87;;;9.00;;
29026;SDS011;16120;48.608;9.092;2023-12-20T13:02:58;114.20;;;8.90;;
29026;SDS011;16120;48.608;9.092;2023-12-20T13:06:54;113.77;;;8.23;;
29026;SDS011;16120;48.608;9.092;2023-12-20T13:10:49;114.50;;;8.50;;
29026;SDS011;16120;48.608;9.092;2023-12-20T13:14:45;113.07;;;8.27;;
29026;SDS011;16120;48.608;9.092;2023-12-20T13:18:41;114.73;;;8.50;;
29026;SDS011;16120;48.608;9.092;2023-12-20T13:22:36;114.72;;;8.32;;
29026;SDS011;16120;48.608;9.092;2023-12-20T13:26:31;113.90;;;8.17;;
29026;SDS011;16120;48.608;9.092;2023-12-20T13:30:31;114.07;;;8.37;;
29026;SDS011;16120;48.608;9.092;2023-12-20T13:34:26;114.20;;;8.97;;
29026;SDS011;16120;48.608;9.092;2023-12-20T13:38:21;113.97;;;8.30;;
29026;SDS011;16120;48.608;9.092;2023-12-20T13:42:16;114.22;;;8.25;;
29026;SDS011;16120;48.608;9.092;2023-12-20T13:46:13;114.07;;;8.50;;
29026;SDS011;16120;48.608;9.092;2023-12-20T13:50:08;113.63;;;8.50;;
29026;SDS011;16120;48.608;9.092;2023-12-20T13:54:03;114.10;;;8.50;;
29026;SDS011;16120;48.608;9.092;2023-12-20T13:58:01;113.90;;;8.67;;
29026;SDS011;16120;48.608;9.092;2023-12-20T14:01:59;114.57;;;8.77;;
29026;SDS011;16120;48.608;9.092;2023-12-20T14:05:54;114.40;;;8.47;;
29026;SDS011;16120;48.608;9.092;2023-12-20T14:09:49;114.80;;;9.20;;
29026;SDS011;16120;48.608;9.092;2023-12-20T14:13:50;113.53;;;8.33;;
29026;SDS011;16120;48.608;9.092;2023-12-20T14:22:16;114.20;;;8.50;;
29026;SDS011;16120;48.608;9.092;2023-12-20T14:26:12;118.67;;;9.47;;
29026;SDS011;16120;48.608;9.092;2023-12-20T14:30:13;114.47;;;8.73;;
29026;SDS011;16120;48.608;9.092;2023-12-20T14:34:08;115.47;;;8.43;;
29026;SDS011;16120;48.608;9.092;2023-12-20T14:38:12;114.10;;;7.97;;
29026;SDS011;16120;48.608;9.092;2023-12-20T14:42:07;114.27;;;8.23;;
29026;SDS011;16120;48.608;9.092;2023-12-20T14:46:03;114.77;;;8.33;;
29026;SDS011;16120;48.608;9.092;2023-12-20T14:49:58;114.90;;;9.20;;
29026;SDS011;16120;48.608;9.092;2023-12-20T14:58:05;114.80;;;8.20;;
29026;SDS011;16120;48.608;9.092;2023-12-20T15:02:01;114.97;;;8.37;;
29026;SDS011;16120;48.608;9.092;2023-12-20T15:05:56;115.03;;;8.90;;
29026;SDS011;16120;48.608;9.092;2023-12-20T15:09:51;115.50;;;9.60;;
29026;SDS011;16120;48.608;9.092;2023-12-20T15:13:48;114.37;;;8.53;;
29026;SDS011;16120;48.608;9.092;2023-12-20T15:17:46;115.23;;;9.10;;
29026;SDS011;16120;48.608;9.092;2023-12-20T15:21:47;115.40;;;8.90;;
29026;SDS011;16120;48.608;9.092;2023-12-20T15:30:04;115.47;;;8.77;;
29026;SDS011;16120;48.608;9.092;2023-12-20T15:34:12;115.90;;;8.77;;
29026;SDS011;16120;48.608;9.092;2023-12-20T15:38:16;115.27;;;8.67;;
29026;SDS011;16120;48.608;9.092;2023-12-20T15:42:11;115.57;;;9.50;;
29026;SDS011;16120;48.608;9.092;2023-12-20T15:46:08;115.97;;;9.83;;
29026;SDS011;16120;48.608;9.092;2023-12-20T15:50:04;114.97;;;8.63;;
29026;SDS011;16120;48.608;9.092;2023-12-20T15:54:02;115.90;;;8.80;;
29026;SDS011;16120;48.608;9.092;2023-12-20T15:57:57;115.70;;;8.63;;
29026;SDS011;16120;48.608;9.092;2023-12-20T16:01:54;115.30;;;8.77;;
29026;SDS011;16120;48.608;9.092;2023-12-20T16:05:49;114.83;;;8.43;;
29026;SDS011;16120;48.608;9.092;2023-12-20T16:09:45;115.20;;;9.10;;
29026;SDS011;16120;48.608;9.092;2023-12-20T16:13:40;116.17;;;9.67;;
29026;SDS011;16120;48.608;9.092;2023-12-20T16:17:36;114.65;;;8.75;;
29026;SDS011;16120;48.608;9.092;2023-12-20T16:21:32;114.23;;;8.50;;
29026;SDS011;16120;48.608;9.092;2023-12-20T16:25:27;116.00;;;8.90;;
29026;SDS011;16120;48.608;9.092;2023-12-20T16:29:22;116.10;;;9.17;;
29026;SDS011;16120;48.608;9.092;2023-12-20T16:33:18;115.10;;;8.50;;
29026;SDS011;16120;48.608;9.092;2023-12-20T16:37:14;115.00;;;9.40;;
29026;SDS011;16120;48.608;9.092;2023-12-20T16:41:09;115.07;;;8.40;;
29026;SDS011;16120;48.608;9.092;2023-12-20T16:45:05;115.38;;;9.02;;
29026;SDS011;16120;48.608;9.092;2023-12-20T16:49:03;115.77;;;8.80;;
29026;SDS011;16120;48.608;9.092;2023-12-20T16:52:59;115.70;;;9.23;;
29026;SDS011;16120;48.608;9.092;2023-12-20T16:56:55;115.57;;;8.67;;
29026;SDS011;16120;48.608;9.092;2023-12-20T17:00:51;114.83;;;8.63;;
29026;SDS011;16120;48.608;9.092;2023-12-20T17:04:47;116.30;;;10.03;;
29026;SDS011;16120;48.608;9.092;2023-12-20T17:08:42;115.30;;;8.60;;
29026;SDS011;16120;48.608;9.092;2023-12-20T17:12:38;115.60;;;8.83;;
29026;SDS011;16120;48.608;9.092;2023-12-20T17:16:33;115.53;;;8.50;;
29026;SDS011;16120;48.608;9.092;2023-12-20T17:20:29;115.60;;;8.77;;
29026;SDS011;16120;48.608;9.092;2023-12-20T17:24:24;116.20;;;8.60;;
29026;SDS011;16120;48.608;9.092;2023-12-20T17:28:22;116.20;;;8.88;;
29026;SDS011;16120;48.608;9.092;2023-12-20T17:32:18;115.57;;;8.70;;
29026;SDS011;16120;48.608;9.092;2023-12-20T17:36:14;115.03;;;8.80;;
29026;SDS011;16120;48.608;9.092;2023-12-20T17:40:10;116.30;;;8.70;;
29026;SDS011;16120;48.608;9.092;2023-12-20T17:44:05;115.77;;;8.67;;
29026;SDS011;16120;48.608;9.092;2023-12-20T17:48:00;115.57;;;9.40;;
29026;SDS011;16120;48.608;9.092;2023-12-20T17:51:59;116.80;;;8.83;;
29026;SDS011;16120;48.608;9.092;2023-12-20T17:55:54;115.40;;;8.50;;
29026;SDS011;16120;48.608;9.092;2023-12-20T17:59:49;116.28;;;8.57;;
29026;SDS011;16120;48.608;9.092;2023-12-20T18:03:45;117.70;;;9.60;;
29026;SDS011;16120;48.608;9.092;2023-12-20T18:07:44;115.47;;;8.53;;
29026;SDS011;16120;48.608;9.092;2023-12-20T18:11:39;115.97;;;8.67;;
29026;SDS011;16120;48.608;9.092;2023-12-20T18:15:34;115.75;;;8.50;;
29026;SDS011;16120;48.608;9.092;2023-12-20T18:19:33;116.63;;;8.70;;
29026;SDS011;16120;48.608;9.092;2023-12-20T18:23:30;116.07;;;8.87;;
29026;SDS011;16120;48.608;9.092;2023-12-20T18:27:25;116.57;;;9.00;;
29026;SDS011;16120;48.608;9.092;2023-12-20T18:31:20;116.97;;;8.60;;
29026;SDS011;16120;48.608;9.092;2023-12-20T18:35:15;117.47;;;9.13;;
29026;SDS011;16120;48.608;9.092;2023-12-20T18:39:12;115.80;;;8.70;;
29026;SDS011;16120;48.608;9.092;2023-12-20T18:43:07;116.97;;;8.87;;
29026;SDS011;16120;48.608;9.092;2023-12-20T18:47:02;115.97;;;8.83;;
29026;SDS011;16120;48.608;9.092;2023-12-20T18:50:57;116.87;;;9.00;;
29026;SDS011;16120;48.608;9.092;2023-12-20T18:54:54;116.57;;;9.03;;
29026;SDS011;16120;48.608;9.092;2023-12-20T18:58:49;116.67;;;9.03;;
29026;SDS011;16120;48.608;9.092;2023-12-20T19:02:45;116.67;;;8.90;;
29026;SDS011;16120;48.608;9.092;2023-12-20T19:06:40;116.00;;;9.27;;
29026;SDS011;16120;48.608;9.092;2023-12-20T19:10:36;117.00;;;9.17;;
29026;SDS011;16120;48.608;9.092;2023-12-20T19:14:32;116.77;;;8.57;;
29026;SDS011;16120;48.608;9.092;2023-12-20T19:18:27;117.00;;;9.27;;
29026;SDS011;16120;48.608;9.092;2023-12-20T19:22:22;116.87;;;8.93;;
29026;SDS011;16120;48.608;9.092;2023-12-20T19:26:19;117.60;;;9.27;;
29026;SDS011;16120;48.608;9.092;2023-12-20T19:30:14;116.10;;;9.40;;
29026;SDS011;16120;48.608;9.092;2023-12-20T19:34:12;116.93;;;8.60;;
29026;SDS011;16120;48.608;9.092;2023-12-20T19:38:07;116.40;;;9.07;;
29026;SDS011;16120;48.608;9.092;2023-12-20T19:42:04;117.23;;;8.87;;
29026;SDS011;16120;48.608;9.092;2023-12-20T19:45:59;116.90;;;9.13;;
29026;SDS011;16120;48.608;9.092;2023-12-20T19:49:56;116.50;;;8.90;;
29026;SDS011;16120;48.608;9.092;2023-12-20T19:53:51;117.27;;;8.93;;
29026;SDS011;16120;48.608;9.092;2023-12-20T19:57:48;116.87;;;8.90;;
29026;SDS011;16120;48.608;9.092;2023-12-20T20:01:43;117.37;;;9.37;;
29026;SDS011;16120;48.608;9.092;2023-12-20T20:05:38;117.87;;;9.90;;
29026;SDS011;16120;48.608;9.092;2023-12-20T20:09:33;116.17;;;9.30;;
29026;SDS011;16120;48.608;9.092;2023-12-20T20:13:30;117.00;;;9.00;;
29026;SDS011;16120;48.608;9.092;2023-12-20T20:17:25;116.80;;;9.37;;
29026;SDS011;16120;48.608;9.092;2023-12-20T20:21:21;117.33;;;10.30;;
29026;SDS011;16120;48.608;9.092;2023-12-20T20:25:16;117.10;;;9.37;;
29026;SDS011;16120;48.608;9.092;2023-12-20T20:29:12;116.57;;;9.17;;
29026;SDS011;16120;48.608;9.092;2023-12-20T20:33:08;116.37;;;9.00;;
29026;SDS011;16120;48.608;9.092;2023-12-20T20:37:03;117.30;;;8.97;;
29026;SDS011;16120;48.608;9.092;2023-12-20T20:40:58;117.90;;;9.30;;
29026;SDS011;16120;48.608;9.092;2023-12-20T20:44:54;116.80;;;9.27;;
29026;SDS011;16120;48.608;9.092;2023-12-20T20:48:50;116.77;;;8.77;;
29026;SDS011;16120;48.608;9.092;2023-12-20T20:52:45;117.67;;;9.10;;
29026;SDS011;16120;48.608;9.092;2023-12-20T20:56:40;117.47;;;8.83;;
29026;SDS011;16120;48.608;9.092;2023-12-20T21:00:37;117.70;;;9.10;;
29026;SDS011;16120;48.608;9.092;2023-12-20T21:04:32;117.20;;;9.47;;
29026;SDS011;16120;48.608;9.092;2023-12-20T21:08:27;116.20;;;9.30;;
29026;SDS011;16120;48.608;9.092;2023-12-20T21:12:23;117.07;;;9.47;;
29026;SDS011;16120;48.608;9.092;2023-12-20T21:16:19;116.53;;;8.97;;
29026;SDS011;16120;48.608;9.092;2023-12-20T21:20:15;117.30;;;9.13;;
29026;SDS011;16120;48.608;9.092;2023-12-20T21:24:10;116.57;;;8.85;;
29026;SDS011;16120;48.608;9.092;2023-12-20T21:28:05;116.47;;;8.97;;
29026;SDS011;16120;48.608;9.092;2023-12-20T21:32:02;116.80;;;8.77;;
29026;SDS011;16120;48.608;9.092;2023-12-20T21:35:57;116.03;;;8.37;;
29026;SDS011;16120;48.608;9.092;2023-12-20T21:39:52;116.82;;;8.93;;
29026;SDS011;16120;48.608;9.092;2023-12-20T21:43:48;116.37;;;8.73;;
29026;SDS011;16120;48.608;9.092;2023-12-20T21:47:52;116.27;;;8.83;;
29026;SDS011;16120;48.608;9.092;2023-12-20T21:51:50;116.67;;;9.07;;
29026;SDS011;16120;48.608;9.092;2023-12-20T21:55:45;116.97;;;8.97;;
29026;SDS011;16120;48.608;9.092;2023-12-20T21:59:44;116.93;;;9.10;;
29026;SDS011;16120;48.608;9.092;2023-12-20T22:07:58;117.27;;;9.73;;
29026;SDS011;16120;48.608;9.092;2023-12-20T22:11:53;117.10;;;9.60;;
29026;SDS011;16120;48.608;9.092;2023-12-20T22:15:49;115.97;;;8.82;;
29026;SDS011;16120;48.608;9.092;2023-12-20T22:19:45;117.27;;;9.13;;
29026;SDS011;16120;48.608;9.092;2023-12-20T22:23:50;117.40;;;8.90;;
29026;SDS011;16120;48.608;9.092;2023-12-20T22:32:08;116.87;;;9.30;;
29026;SDS011;16120;48.608;9.092;2023-12-20T22:36:09;116.47;;;8.70;;
29026;SDS011;16120;48.608;9.092;2023-12-20T22:40:19;116.00;;;9.37;;
29026;SDS011;16120;48.608;9.092;2023-12-20T22:48:28;114.97;;;8.87;;
29026;SDS011;16120;48.608;9.092;2023-12-20T22:52:29;115.80;;;8.50;;
29026;SDS011;16120;48.608;9.092;2023-12-20T22:56:39;115.87;;;8.83;;
29026;SDS011;16120;48.608;9.092;2023-12-20T23:00:39;116.23;;;9.03;;
29026;SDS011;16120;48.608;9.092;2023-12-20T23:04:35;116.57;;;9.43;;
29026;SDS011;16120;48.608;9.092;2023-12-20T23:08:31;115.27;;;8.53;;
29026;SDS011;16120;48.608;9.092;2023-12-20T23:12:35;115.43;;;8.63;;
29026;SDS011;16120;48.608;9.092;2023-12-20T23:16:35;116.33;;;9.00;;
29026;SDS011;16120;48.608;9.092;2023-12-20T23:20:34;116.17;;;8.97;;
29026;SDS011;16120;48.608;9.092;2023-12-20T23:24:29;115.67;;;8.90;;
29026;SDS011;16120;48.608;9.092;2023-12-20T23:28:26;115.30;;;8.50;;
29026;SDS011;16120;48.608;9.092;2023-12-20T23:32:21;115.70;;;8.60;;